createdAt,value
2022-10-24T00:01:11.757Z,15.30
2022-10-24T00:03:38.478Z,15.40
2022-10-24T00:06:07.474Z,15.30
2022-10-24T00:08:35.671Z,15.30
2022-10-24T00:11:02.330Z,15.40
2022-10-24T00:13:28.940Z,15.30
2022-10-24T00:15:55.513Z,15.40
2022-10-24T00:18:22.121Z,15.40
2022-10-24T00:20:48.661Z,15.40
2022-10-24T00:23:15.171Z,15.40
2022-10-24T00:25:41.702Z,15.40
2022-10-24T00:28:08.287Z,15.40
2022-10-24T00:30:34.876Z,15.50
2022-10-24T00:33:01.387Z,15.50
2022-10-24T00:35:28.153Z,15.40
2022-10-24T00:37:54.744Z,15.40
2022-10-24T00:40:21.826Z,15.30
2022-10-24T00:42:48.860Z,15.30
2022-10-24T00:45:43.387Z,15.30
2022-10-24T00:48:20.809Z,15.20
2022-10-24T00:50:49.577Z,15.20
2022-10-24T00:53:16.675Z,15.20
2022-10-24T00:55:46.261Z,15.20
2022-10-24T00:58:13.493Z,15.20
2022-10-24T01:00:40.075Z,15.10
2022-10-24T01:03:07.667Z,15.10
2022-10-24T01:06:05.574Z,15.10
2022-10-24T01:09:10.833Z,15.10
2022-10-24T01:12:05.441Z,15.10
2022-10-24T01:14:58.436Z,15.10
2022-10-24T01:17:30.741Z,15.10
2022-10-24T01:20:03.261Z,15.10
2022-10-24T01:22:58.381Z,15.10
2022-10-24T01:25:32.587Z,15.10
2022-10-24T01:28:13.136Z,15.00
2022-10-24T01:30:51.040Z,15.00
2022-10-24T01:33:25.945Z,14.90
2022-10-24T01:35:58.518Z,14.80
2022-10-24T01:38:40.837Z,14.90
2022-10-24T01:41:22.819Z,14.90
2022-10-24T01:44:05.053Z,14.80
2022-10-24T01:46:39.935Z,14.80
2022-10-24T01:49:18.805Z,14.90
2022-10-24T01:51:48.600Z,14.80
2022-10-24T01:54:15.912Z,14.80
2022-10-24T01:56:44.118Z,14.80
2022-10-24T01:59:28.792Z,14.80
2022-10-24T02:02:02.844Z,14.80
2022-10-24T02:04:32.876Z,14.80
2022-10-24T02:07:02.375Z,14.80
2022-10-24T02:09:32.606Z,14.70
2022-10-24T02:12:00.721Z,14.70
2022-10-24T02:14:48.584Z,14.70
2022-10-24T02:17:15.891Z,14.70
2022-10-24T02:19:43.520Z,14.70
2022-10-24T02:22:33.984Z,14.80
2022-10-24T02:25:10.554Z,14.80
2022-10-24T02:27:39.908Z,14.80
2022-10-24T02:30:14.044Z,14.80
2022-10-24T02:32:44.411Z,14.80
2022-10-24T02:35:14.205Z,14.70
2022-10-24T02:37:47.784Z,14.80
2022-10-24T02:40:16.561Z,14.70
2022-10-24T02:42:45.801Z,14.70
2022-10-24T02:45:14.055Z,14.60
2022-10-24T02:47:43.235Z,14.60
2022-10-24T02:50:10.515Z,14.60
2022-10-24T02:52:38.488Z,14.70
2022-10-24T02:55:06.044Z,14.70
2022-10-24T02:57:32.572Z,14.70
2022-10-24T02:59:59.112Z,14.70
2022-10-24T03:02:26.813Z,14.70
2022-10-24T03:04:53.357Z,14.70
2022-10-24T03:07:19.987Z,14.70
2022-10-24T03:09:46.559Z,14.70
2022-10-24T03:12:16.868Z,14.70
2022-10-24T03:14:45.140Z,14.70
2022-10-24T03:17:11.660Z,14.60
2022-10-24T03:19:38.506Z,14.60
2022-10-24T03:22:05.221Z,14.60
2022-10-24T03:24:43.758Z,14.60
2022-10-24T03:27:11.720Z,14.50
2022-10-24T03:29:38.288Z,14.50
2022-10-24T03:32:05.560Z,14.40
2022-10-24T03:34:32.327Z,14.50
2022-10-24T03:36:58.919Z,14.50
2022-10-24T03:39:25.480Z,14.50
2022-10-24T03:41:52.047Z,14.40
2022-10-24T03:44:18.785Z,14.40
2022-10-24T03:46:45.356Z,14.40
2022-10-24T03:49:11.882Z,14.40
2022-10-24T03:51:38.443Z,14.40
2022-10-24T03:54:05.096Z,14.40
2022-10-24T03:56:31.637Z,14.50
2022-10-24T03:58:58.190Z,14.40
2022-10-24T04:01:27.310Z,14.40
2022-10-24T04:03:53.891Z,14.40
2022-10-24T04:06:20.411Z,14.40
2022-10-24T04:08:47.021Z,14.30
2022-10-24T04:11:13.627Z,14.20
2022-10-24T04:13:40.707Z,14.20
2022-10-24T04:16:07.856Z,14.20
2022-10-24T04:18:34.484Z,14.20
2022-10-24T04:21:01.052Z,14.20
2022-10-24T04:23:27.865Z,14.10
2022-10-24T04:25:55.659Z,14.10
2022-10-24T04:28:22.181Z,14.20
2022-10-24T04:30:54.965Z,14.20
2022-10-24T04:33:21.512Z,14.10
2022-10-24T04:35:49.298Z,14.20
2022-10-24T04:38:16.456Z,14.20
2022-10-24T04:40:48.954Z,14.20
2022-10-24T04:43:15.854Z,14.20
2022-10-24T04:45:42.356Z,14.10
2022-10-24T04:48:08.969Z,14.10
2022-10-24T04:50:35.776Z,14.00
2022-10-24T04:53:02.399Z,13.90
2022-10-24T04:55:29.074Z,13.90
2022-10-24T04:57:55.655Z,14.00
2022-10-24T05:00:22.315Z,13.90
2022-10-24T05:02:49.009Z,13.90
2022-10-24T05:05:17.069Z,13.80
2022-10-24T05:07:44.987Z,13.80
2022-10-24T05:10:12.790Z,13.80
2022-10-24T05:12:39.605Z,13.80
2022-10-24T05:15:07.708Z,13.80
2022-10-24T05:17:34.693Z,13.80
2022-10-24T05:20:01.957Z,13.80
2022-10-24T05:22:28.538Z,13.80
2022-10-24T05:24:55.044Z,13.80
2022-10-24T05:27:24.570Z,13.80
2022-10-24T05:29:52.212Z,13.80
2022-10-24T05:32:19.945Z,13.80
2022-10-24T05:34:46.657Z,13.80
2022-10-24T05:37:13.263Z,13.80
2022-10-24T05:39:39.845Z,13.80
2022-10-24T05:42:06.903Z,13.90
2022-10-24T05:44:33.714Z,13.90
2022-10-24T05:47:00.284Z,13.90
2022-10-24T05:49:26.831Z,14.00
2022-10-24T05:51:53.364Z,13.90
2022-10-24T05:54:19.972Z,13.90
2022-10-24T05:56:46.495Z,13.90
2022-10-24T05:59:13.135Z,13.90
2022-10-24T06:01:40.873Z,13.90
2022-10-24T06:04:11.312Z,13.90
2022-10-24T06:06:44.527Z,13.90
2022-10-24T06:09:12.133Z,13.90
2022-10-24T06:11:38.743Z,13.80
2022-10-24T06:14:06.128Z,13.90
2022-10-24T06:16:34.281Z,13.90
2022-10-24T06:19:00.928Z,13.90
2022-10-24T06:21:28.376Z,13.90
2022-10-24T06:23:55.096Z,14.00
2022-10-24T06:26:24.015Z,14.00
2022-10-24T06:28:50.890Z,14.00
2022-10-24T06:31:19.719Z,14.10
2022-10-24T06:33:46.429Z,14.10
2022-10-24T06:36:14.302Z,14.20
2022-10-24T06:38:42.286Z,14.20
2022-10-24T06:41:10.896Z,14.20
2022-10-24T06:43:38.161Z,14.20
2022-10-24T06:46:12.777Z,14.20
2022-10-24T06:48:39.511Z,14.20
2022-10-24T06:51:06.973Z,14.20
2022-10-24T06:53:34.322Z,14.30
2022-10-24T06:56:02.697Z,14.20
2022-10-24T06:58:36.680Z,14.20
2022-10-24T07:01:19.205Z,14.30
2022-10-24T07:03:46.729Z,14.30
2022-10-24T07:06:25.121Z,14.30
2022-10-24T07:08:53.386Z,14.30
2022-10-24T07:11:20.544Z,14.30
2022-10-24T07:13:47.539Z,14.40
2022-10-24T07:16:17.876Z,14.30
2022-10-24T07:18:44.900Z,14.40
2022-10-24T07:21:15.524Z,14.30
2022-10-24T07:23:42.310Z,14.40
2022-10-24T07:26:12.393Z,14.40
2022-10-24T07:28:39.952Z,14.50
2022-10-24T07:31:07.416Z,14.40
2022-10-24T07:33:34.468Z,14.50
2022-10-24T07:36:00.985Z,14.60
2022-10-24T07:38:27.567Z,14.60
2022-10-24T07:40:54.185Z,14.70
2022-10-24T07:43:20.765Z,14.70
2022-10-24T07:45:50.562Z,14.70
2022-10-24T07:51:12.260Z,14.90
2022-10-24T07:53:39.717Z,15.00
2022-10-24T07:56:09.342Z,15.10
2022-10-24T07:58:36.669Z,15.10
2022-10-24T08:01:05.336Z,15.20
2022-10-24T08:03:31.976Z,15.30
2022-10-24T08:05:58.624Z,15.40
2022-10-24T08:08:35.675Z,15.30
2022-10-24T08:11:15.180Z,15.40
2022-10-24T08:13:42.331Z,15.50
2022-10-24T08:16:11.218Z,15.60
2022-10-24T08:18:40.002Z,15.60
2022-10-24T08:21:09.587Z,15.80
2022-10-24T08:23:40.126Z,15.90
2022-10-24T08:26:10.397Z,16.00
2022-10-24T08:28:37.092Z,16.00
2022-10-24T08:31:07.588Z,16.10
2022-10-24T08:33:34.959Z,16.20
2022-10-24T08:36:05.619Z,16.20
2022-10-24T08:38:32.880Z,16.30
2022-10-24T08:41:00.572Z,16.40
2022-10-24T08:43:27.429Z,16.30
2022-10-24T08:46:02.895Z,16.40
2022-10-24T08:48:35.972Z,16.40
2022-10-24T08:51:12.743Z,16.30
2022-10-24T08:53:40.617Z,16.40
2022-10-24T08:56:10.330Z,16.50
2022-10-24T08:58:45.039Z,16.50
2022-10-24T09:01:26.946Z,16.50
2022-10-24T09:03:56.573Z,16.60
2022-10-24T09:06:30.014Z,16.60
2022-10-24T09:08:59.876Z,16.60
2022-10-24T09:11:51.486Z,16.60
2022-10-24T09:14:24.919Z,16.70
2022-10-24T09:17:02.212Z,16.70
2022-10-24T09:19:30.715Z,16.80
2022-10-24T09:21:59.220Z,16.90
2022-10-24T09:24:39.236Z,17.00
2022-10-24T09:27:16.860Z,17.10
2022-10-24T09:29:43.677Z,17.00
2022-10-24T09:32:20.756Z,17.10
2022-10-24T09:34:48.216Z,17.20
2022-10-24T09:37:42.812Z,17.30
2022-10-24T09:40:29.963Z,17.40
2022-10-24T09:43:16.623Z,17.30
2022-10-24T09:46:03.939Z,17.30
2022-10-24T09:48:40.041Z,17.30
2022-10-24T09:51:08.086Z,17.40
2022-10-24T09:53:41.092Z,17.50
2022-10-24T09:56:13.445Z,17.60
2022-10-24T09:58:41.083Z,17.70
2022-10-24T10:01:16.854Z,17.70
2022-10-24T10:03:44.165Z,17.90
2022-10-24T10:06:17.912Z,18.00
2022-10-24T10:08:54.208Z,18.10
2022-10-24T10:11:31.603Z,18.20
2022-10-24T10:14:02.042Z,18.20
2022-10-24T10:16:38.346Z,18.20
2022-10-24T10:19:13.622Z,18.20
2022-10-24T10:22:07.189Z,18.30
2022-10-24T10:24:41.796Z,18.30
2022-10-24T10:27:35.560Z,18.40
2022-10-24T10:30:16.839Z,18.50
2022-10-24T10:33:15.172Z,18.50
2022-10-24T10:36:13.725Z,18.70
2022-10-24T10:38:49.799Z,18.80
2022-10-24T10:41:29.581Z,18.80
2022-10-24T10:44:39.175Z,18.90
2022-10-24T10:47:38.172Z,18.90
2022-10-24T10:50:24.550Z,18.80
2022-10-24T10:52:51.411Z,18.80
2022-10-24T10:55:42.644Z,18.80
2022-10-24T10:58:47.035Z,18.80
2022-10-24T11:01:27.283Z,18.80
2022-10-24T11:04:23.806Z,18.70
2022-10-24T11:07:01.669Z,18.70
2022-10-24T11:09:36.654Z,18.70
2022-10-24T11:12:22.942Z,18.80
2022-10-24T11:14:57.900Z,18.90
2022-10-24T11:17:31.107Z,18.90
2022-10-24T11:20:24.583Z,18.80
2022-10-24T11:23:12.352Z,18.80
2022-10-24T11:25:44.337Z,18.80
2022-10-24T11:28:39.813Z,18.80
2022-10-24T11:31:15.060Z,18.80
2022-10-24T11:34:01.010Z,18.70
2022-10-24T11:36:41.716Z,18.70
2022-10-24T11:39:23.998Z,18.60
2022-10-24T11:42:17.998Z,18.70
2022-10-24T11:45:09.957Z,18.80
2022-10-24T11:47:48.487Z,18.80
2022-10-24T11:50:26.711Z,18.90
2022-10-24T11:52:59.952Z,18.90
2022-10-24T11:55:37.130Z,18.90
2022-10-24T11:58:05.959Z,18.80
2022-10-24T12:00:42.152Z,18.80
2022-10-24T12:03:43.966Z,18.70
2022-10-24T12:06:20.124Z,18.70
2022-10-24T12:08:58.425Z,18.70
2022-10-24T12:11:44.035Z,18.80
2022-10-24T12:14:25.293Z,18.80
2022-10-24T12:17:16.832Z,18.80
2022-10-24T12:19:46.589Z,18.70
2022-10-24T12:22:23.651Z,18.80
2022-10-24T12:25:03.275Z,18.60
2022-10-24T12:27:39.683Z,18.60
2022-10-24T12:30:09.292Z,18.60
2022-10-24T12:32:48.175Z,18.70
2022-10-24T12:35:35.423Z,18.70
2022-10-24T12:38:14.206Z,18.50
2022-10-24T12:40:48.647Z,18.60
2022-10-24T12:43:29.112Z,18.60
2022-10-24T12:46:00.201Z,18.70
2022-10-24T12:48:36.105Z,18.60
2022-10-24T12:51:27.457Z,18.60
2022-10-24T12:54:11.198Z,18.50
2022-10-24T12:57:02.644Z,18.50
2022-10-24T12:59:30.727Z,18.40
2022-10-24T13:02:16.645Z,18.40
2022-10-24T13:05:21.833Z,18.40
2022-10-24T13:08:14.084Z,18.30
2022-10-24T13:10:49.140Z,18.30
2022-10-24T13:13:37.256Z,18.30
2022-10-24T13:16:13.270Z,18.30
2022-10-24T13:19:10.495Z,18.60
2022-10-24T13:21:50.093Z,18.60
2022-10-24T13:24:16.790Z,18.70
2022-10-24T13:26:46.016Z,18.70
2022-10-24T13:29:22.888Z,18.60
2022-10-24T13:31:53.337Z,18.60
2022-10-24T13:34:24.226Z,18.50
2022-10-24T13:37:10.910Z,18.50
2022-10-24T13:39:42.592Z,18.50
2022-10-24T13:42:24.075Z,18.50
2022-10-24T13:44:54.491Z,18.50
2022-10-24T13:47:25.815Z,18.40
2022-10-24T13:50:04.963Z,18.20
2022-10-24T13:52:39.434Z,18.00
2022-10-24T13:55:12.313Z,17.70
2022-10-24T13:58:01.260Z,17.50
2022-10-24T14:00:33.637Z,17.30
2022-10-24T14:03:04.743Z,17.20
2022-10-24T14:05:47.877Z,17.20
2022-10-24T14:08:50.846Z,17.10
2022-10-24T14:11:25.312Z,17.20
2022-10-24T14:13:55.018Z,17.10
2022-10-24T14:16:30.153Z,17.00
2022-10-24T14:19:17.642Z,16.50
2022-10-24T14:21:46.804Z,16.50
2022-10-24T14:24:19.692Z,16.50
2022-10-24T14:26:47.879Z,16.70
2022-10-24T14:29:32.683Z,16.70
2022-10-24T14:32:01.864Z,16.60
2022-10-24T14:34:35.218Z,16.60
2022-10-24T14:37:08.955Z,16.70
2022-10-24T14:39:36.722Z,16.80
2022-10-24T14:42:03.749Z,16.90
2022-10-24T14:44:30.540Z,17.00
2022-10-24T14:47:21.809Z,17.20
2022-10-24T14:49:48.477Z,17.30
2022-10-24T14:52:19.526Z,17.60
2022-10-24T14:55:03.061Z,17.70
2022-10-24T14:57:32.030Z,17.90
2022-10-24T15:00:07.252Z,17.90
2022-10-24T15:02:41.951Z,18.00
2022-10-24T15:05:32.684Z,18.00
2022-10-24T15:08:22.439Z,18.20
2022-10-24T15:11:00.475Z,18.20
2022-10-24T15:13:31.344Z,18.20
2022-10-24T15:15:59.541Z,18.20
2022-10-24T15:18:30.792Z,18.10
2022-10-24T15:21:16.000Z,18.00
2022-10-24T15:23:48.529Z,17.90
2022-10-24T15:26:27.226Z,17.90
2022-10-24T15:29:07.472Z,17.80
2022-10-24T15:31:37.852Z,17.80
2022-10-24T15:34:07.417Z,17.90
2022-10-24T15:36:36.390Z,17.80
2022-10-24T15:39:07.229Z,17.90
2022-10-24T15:41:34.005Z,17.80
2022-10-24T15:44:01.677Z,17.70
2022-10-24T15:46:28.736Z,17.70
2022-10-24T15:48:55.465Z,17.70
2022-10-24T15:51:24.251Z,17.60
2022-10-24T15:53:52.572Z,17.60
2022-10-24T15:56:19.123Z,17.50
2022-10-24T15:58:45.671Z,17.50
2022-10-24T16:01:27.541Z,17.30
2022-10-24T16:03:55.060Z,17.30
2022-10-24T16:06:22.209Z,17.20
2022-10-24T16:08:49.878Z,17.20
2022-10-24T16:11:16.550Z,17.20
2022-10-24T16:13:43.100Z,17.00
2022-10-24T16:16:09.798Z,16.90
2022-10-24T16:18:36.575Z,16.90
2022-10-24T16:21:04.992Z,16.90
2022-10-24T16:23:32.997Z,17.00
2022-10-24T16:25:59.786Z,16.90
2022-10-24T16:28:26.816Z,16.80
2022-10-24T16:30:53.392Z,16.90
2022-10-24T16:33:23.212Z,16.90
2022-10-24T16:35:50.889Z,16.80
2022-10-24T16:38:17.920Z,16.80
2022-10-24T16:40:49.673Z,16.90
2022-10-24T16:43:18.717Z,16.80
2022-10-24T16:45:55.399Z,16.70
2022-10-24T16:48:21.951Z,16.50
2022-10-24T16:50:48.514Z,16.40
2022-10-24T16:53:18.464Z,16.30
2022-10-24T16:55:53.233Z,16.20
2022-10-24T16:58:21.530Z,16.20
2022-10-24T17:00:48.265Z,16.20
2022-10-24T17:03:15.357Z,16.20
2022-10-24T17:05:45.316Z,16.20
2022-10-24T17:08:11.876Z,16.30
2022-10-24T17:10:40.141Z,16.20
2022-10-24T17:13:07.542Z,16.30
2022-10-24T17:15:34.238Z,16.30
2022-10-24T17:18:00.777Z,16.20
2022-10-24T17:20:27.415Z,16.20
2022-10-24T17:22:54.228Z,16.10
2022-10-24T17:25:23.723Z,16.10
2022-10-24T17:27:51.028Z,16.10
2022-10-24T17:30:20.784Z,16.10
2022-10-24T17:32:47.646Z,16.00
2022-10-24T17:35:17.288Z,15.80
2022-10-24T17:38:16.280Z,15.90
2022-10-24T17:40:48.296Z,15.80
2022-10-24T17:43:19.270Z,15.80
2022-10-24T17:45:46.217Z,15.70
2022-10-24T17:48:12.880Z,15.70
2022-10-24T17:50:42.416Z,15.70
2022-10-24T17:53:12.004Z,15.80
2022-10-24T17:55:47.831Z,15.80
2022-10-24T18:01:06.806Z,15.70
2022-10-24T18:03:35.010Z,15.70
2022-10-24T18:06:03.424Z,15.60
2022-10-24T18:08:30.012Z,15.70
2022-10-24T18:13:53.002Z,15.70
2022-10-24T18:16:19.922Z,15.60
2022-10-24T18:18:47.719Z,15.60
2022-10-24T18:23:51.599Z,15.60
2022-10-24T18:26:21.151Z,15.60
2022-10-24T18:28:50.044Z,15.60
2022-10-24T18:31:22.073Z,15.50
2022-10-24T18:33:49.466Z,15.50
2022-10-24T18:36:18.959Z,15.50
2022-10-24T18:38:45.758Z,15.40
2022-10-24T18:41:30.926Z,15.50
2022-10-24T18:44:03.577Z,15.40
2022-10-24T18:46:30.576Z,15.30
2022-10-24T18:48:57.386Z,15.20
2022-10-24T18:51:32.197Z,15.30
2022-10-24T18:54:05.277Z,15.40
2022-10-24T18:56:32.320Z,15.40
2022-10-24T18:58:59.182Z,15.30
2022-10-24T19:01:38.865Z,15.20
2022-10-24T19:04:15.489Z,15.30
2022-10-24T19:06:42.921Z,15.30
2022-10-24T19:09:21.344Z,15.20
2022-10-24T19:11:48.878Z,15.20
2022-10-24T19:14:16.446Z,15.10
2022-10-24T19:16:45.777Z,15.10
2022-10-24T19:19:16.233Z,15.10
2022-10-24T19:21:43.510Z,15.00
2022-10-24T19:24:11.868Z,14.80
2022-10-24T19:26:38.424Z,14.90
2022-10-24T19:29:05.905Z,14.90
2022-10-24T19:31:32.893Z,14.80
2022-10-24T19:33:59.437Z,14.80
2022-10-24T19:38:57.342Z,14.90
2022-10-24T19:41:24.277Z,14.90
2022-10-24T19:43:51.066Z,14.80
2022-10-24T19:46:20.326Z,14.80
2022-10-24T19:48:49.122Z,14.80
2022-10-24T19:51:16.896Z,14.90
2022-10-24T19:53:44.784Z,14.80
2022-10-24T19:56:23.881Z,14.80
2022-10-24T19:58:52.335Z,14.80
2022-10-24T20:01:22.321Z,14.70
2022-10-24T20:03:49.948Z,14.70
2022-10-24T20:06:17.373Z,14.70
2022-10-24T20:08:46.457Z,14.60
2022-10-24T20:11:13.877Z,14.60
2022-10-24T20:13:40.465Z,14.60
2022-10-24T20:16:12.755Z,14.60
2022-10-24T20:21:10.064Z,14.50
2022-10-24T20:23:37.259Z,14.50
2022-10-24T20:26:12.555Z,14.50
2022-10-24T20:28:44.700Z,14.50
2022-10-24T20:31:39.234Z,14.60
2022-10-24T20:34:10.535Z,14.50
2022-10-24T20:36:38.932Z,14.50
2022-10-24T20:39:08.957Z,14.50
2022-10-24T20:41:36.351Z,14.50
2022-10-24T20:44:03.897Z,14.60
2022-10-24T20:46:31.339Z,14.50
2022-10-24T20:48:58.054Z,14.50
2022-10-24T20:51:24.791Z,14.60
2022-10-24T20:53:51.867Z,14.60
2022-10-24T20:56:22.263Z,14.60
2022-10-24T20:58:50.601Z,14.60
2022-10-24T21:01:23.119Z,14.60
2022-10-24T21:03:51.202Z,14.60
2022-10-24T21:06:29.325Z,14.70
2022-10-24T21:08:58.777Z,14.70
2022-10-24T21:11:28.319Z,14.90
2022-10-24T21:14:00.148Z,14.80
2022-10-24T21:16:27.709Z,14.90
2022-10-24T21:18:54.713Z,14.90
2022-10-24T21:21:23.513Z,14.90
2022-10-24T21:24:00.926Z,14.90
2022-10-24T21:26:30.885Z,14.90
2022-10-24T21:29:08.514Z,14.90
2022-10-24T21:31:44.109Z,15.00
2022-10-24T21:34:10.822Z,14.90
2022-10-24T21:36:37.342Z,14.90
2022-10-24T21:39:04.217Z,14.90
2022-10-24T21:41:30.745Z,15.00
2022-10-24T21:43:58.625Z,14.90
2022-10-24T21:46:29.010Z,14.90
2022-10-24T21:48:56.684Z,14.90
2022-10-24T21:51:35.063Z,14.90
2022-10-24T21:54:04.215Z,14.90
2022-10-24T21:56:33.292Z,14.80
2022-10-24T22:01:36.326Z,14.80
2022-10-24T22:04:04.327Z,14.80
2022-10-24T22:06:32.023Z,14.80
2022-10-24T22:08:59.126Z,14.80
2022-10-24T22:11:28.008Z,14.80
2022-10-24T22:13:55.168Z,14.70
2022-10-24T22:19:15.360Z,14.60
2022-10-24T22:21:44.608Z,14.70
2022-10-24T22:24:14.524Z,14.60
2022-10-24T22:26:41.948Z,14.70
2022-10-24T22:29:10.513Z,14.60
2022-10-24T22:31:37.712Z,14.60
2022-10-24T22:34:05.142Z,14.70
2022-10-24T22:36:55.436Z,14.60
2022-10-24T22:39:26.077Z,14.50
2022-10-24T22:41:53.308Z,14.50
2022-10-24T22:44:20.890Z,14.40
2022-10-24T22:47:12.538Z,14.30
2022-10-24T22:50:09.872Z,14.30
2022-10-24T22:52:37.413Z,14.20
2022-10-24T22:55:09.248Z,14.30
2022-10-24T22:57:37.323Z,14.30
2022-10-24T23:00:04.459Z,14.30
2022-10-24T23:02:40.415Z,14.30
2022-10-24T23:05:13.660Z,14.30
2022-10-24T23:07:57.134Z,14.40
2022-10-24T23:10:25.392Z,14.40
2022-10-24T23:12:52.462Z,14.30
2022-10-24T23:15:20.890Z,14.30
2022-10-24T23:17:48.543Z,14.30
2022-10-24T23:20:39.108Z,14.30
2022-10-24T23:23:17.184Z,14.30
2022-10-24T23:26:09.280Z,14.20
2022-10-24T23:28:58.292Z,14.20
2022-10-24T23:31:25.151Z,14.20
2022-10-24T23:33:51.949Z,14.20
2022-10-24T23:36:25.202Z,14.20
2022-10-24T23:38:54.857Z,14.10
2022-10-24T23:41:21.804Z,14.10
2022-10-24T23:43:48.584Z,14.00
2022-10-24T23:46:26.245Z,14.00
2022-10-24T23:49:11.275Z,13.90
2022-10-24T23:52:03.980Z,13.90
2022-10-24T23:54:32.762Z,13.90
2022-10-24T23:57:00.051Z,14.00
2022-10-24T23:59:26.572Z,14.00
